METAR AND TAF INFORMATION
METAR FOR UARR
ADDS - METARS form results

(0210 UTC 18 November 2019)
Data provider http://aviationweather.gov/metar/data/
 
METAR text: UARR 180200Z 25003MPS 6000 BKN012 OVC016 M01/M02 Q1033 R22/CLRD70 NOSIG RMK QFE771/1028
Conditions at: UARR (URALSK , KZ) observed 0200 UTC 18 November 2019
Temperature: -1.0°C (30°F)
Dewpoint: -2.0°C (28°F) [RH = 93%]
Pressure (altimeter): 30.50 inches Hg (1033.0 mb)
Winds: from the WSW (250 degrees) at 7 MPH (6 knots; 3.1 m/s)
Visibility: 4 miles ( 6 km)
Ceiling: 1200 feet AGL
Clouds: broken clouds at 1200 feet AGL
overcast cloud deck at 1600 feet AGL
Weather: no significant weather observed at this time

METAR text: UARR 180130Z 25003MPS 5000 BR BKN009 OVC016 M01/M02 Q1033 R22/CLRD70 NOSIG RMK QFE771/1028
Conditions at: UARR (URALSK , KZ) observed 0130 UTC 18 November 2019
Temperature: -1.0°C (30°F)
Dewpoint: -2.0°C (28°F) [RH = 93%]
Pressure (altimeter): 30.50 inches Hg (1033.0 mb)
Winds: from the WSW (250 degrees) at 7 MPH (6 knots; 3.1 m/s)
Visibility: 3 miles ( 5 km)
Ceiling: 900 feet AGL
Clouds: broken clouds at 900 feet AGL
overcast cloud deck at 1600 feet AGL
Weather: BR  (mist)

Forecast for: UARR (URALSK , KZ)
Text: TAF UARR 180200Z 1803/1812 VRB02MPS 3100 BR BKN011
Forecast period: 0300 to 1200 UTC 18 November 2019
Forecast type: FROM: standard forecast or significant change
Winds: variable direction winds at 5 MPH (4 knots; 2.1 m/s)
Visibility: 1.93 miles (3.11 km)
Ceiling: 1100 feet AGL
Clouds: broken clouds at 1100 feet AGL
Weather: BR  (mist)
Text: TEMPO 1803/1806 26003MPS 0400 FZFG VV003
Forecast period: 0300 to 0600 UTC 18 November 2019
Forecast type: TEMPORARY: The following changes expected for less than half the time period
Winds: from the W (260 degrees) at 7 MPH (6 knots; 3.1 m/s)
Visibility: 0.25 miles (0.40 km)
Ceiling: indefinite ceiling with vertical visibility of 300 feet AGL
Clouds: obscured sky
Weather: FZFG  (freezing fog)
Text: TEMPO 1806/1812 BKN006
Forecast period: 0600 to 1200 UTC 18 November 2019
Forecast type: TEMPORARY: The following changes expected for less than half the time period
Visibility: missing
Ceiling: 600 feet AGL
Clouds: broken clouds at 600 feet AGL
Weather: no significant weather forecast for this period

 AIRPORT MAP

 RUNWAY INFORMATION

 AIRPORT FREQUENCIES
Type TWR Name TWR Frequency 119.7 MHZ

 AIRPORT NEAR NAVIGATION AIDS
Type NDB Name Uralsk Frequency 442 KHZ
Type NDB Name Uralsk Frequency 442 KHZ
Type VOR-DME Name Uralsk Frequency 114200 KHZ



2018 Air Astana Virtual Airline